createdAt,value
2024-01-14T00:01:19.134Z,100165.78
2024-01-14T00:04:21.614Z,100143.38
2024-01-14T00:07:24.090Z,100144.38
2024-01-14T00:10:26.575Z,100136.84
2024-01-14T00:13:28.961Z,100121.00
2024-01-14T00:16:35.564Z,100118.88
2024-01-14T00:19:38.377Z,100124.88
2024-01-14T00:22:40.883Z,100120.91
2024-01-14T00:25:43.294Z,100129.13
2024-01-14T00:28:45.702Z,100105.31
2024-01-14T00:31:48.116Z,100116.97
2024-01-14T00:34:50.555Z,100112.22
2024-01-14T00:37:53.249Z,100109.75
2024-01-14T00:40:55.958Z,100112.06
2024-01-14T00:43:58.404Z,100110.44
2024-01-14T00:47:01.321Z,100119.69
2024-01-14T00:50:03.971Z,100128.97
2024-01-14T00:53:06.397Z,100119.53
2024-01-14T00:56:08.788Z,100092.97
2024-01-14T00:59:11.340Z,100095.81
2024-01-14T01:02:13.822Z,100093.50
2024-01-14T01:05:16.424Z,100098.53
2024-01-14T01:08:18.949Z,100087.84
2024-01-14T01:11:21.406Z,100094.84
2024-01-14T01:14:23.779Z,100094.66
2024-01-14T01:17:26.262Z,100088.69
2024-01-14T01:20:28.638Z,100081.25
2024-01-14T01:23:31.045Z,100061.19
2024-01-14T01:26:33.482Z,100068.19
2024-01-14T01:29:36.015Z,100087.50
2024-01-14T01:32:38.571Z,100079.78
2024-01-14T01:35:41.261Z,100078.34
2024-01-14T01:38:43.688Z,100072.25
2024-01-14T01:41:46.155Z,100068.03
2024-01-14T01:44:48.622Z,100061.94
2024-01-14T01:47:51.258Z,100064.41
2024-01-14T01:50:56.032Z,100038.13
2024-01-14T01:53:59.197Z,100059.38
2024-01-14T01:57:01.619Z,100034.53
2024-01-14T02:00:04.801Z,100031.78
2024-01-14T02:03:14.888Z,100030.44
2024-01-14T02:06:17.854Z,100035.28
2024-01-14T02:09:20.715Z,100014.78
2024-01-14T02:12:23.177Z,100030.88
2024-01-14T02:15:25.725Z,100020.09
2024-01-14T02:18:28.291Z,100009.22
2024-01-14T02:21:43.016Z,99995.91
2024-01-14T02:24:46.539Z,100000.22
2024-01-14T02:27:49.857Z,99989.22
2024-01-14T02:30:52.682Z,99996.19
2024-01-14T02:33:55.263Z,99996.91
2024-01-14T02:36:57.800Z,99992.50
2024-01-14T02:40:00.362Z,99988.56
2024-01-14T02:43:02.855Z,99995.97
2024-01-14T02:46:05.344Z,99997.47
2024-01-14T02:49:07.872Z,99996.13
2024-01-14T02:52:10.558Z,99994.56
2024-01-14T02:55:13.088Z,99981.94
2024-01-14T02:58:15.546Z,99985.81
2024-01-14T03:01:18.101Z,99989.16
2024-01-14T03:04:20.594Z,99958.16
2024-01-14T03:07:23.010Z,99979.53
2024-01-14T03:10:25.415Z,99989.25
2024-01-14T03:13:29.279Z,99986.06
2024-01-14T03:16:31.653Z,99991.81
2024-01-14T03:19:34.413Z,99978.53
2024-01-14T03:22:36.899Z,99984.63
2024-01-14T03:25:39.457Z,99979.56
2024-01-14T03:28:41.823Z,99987.78
2024-01-14T03:31:44.239Z,99983.59
2024-01-14T03:34:46.616Z,99982.94
2024-01-14T03:37:49.494Z,99991.94
2024-01-14T03:40:51.893Z,99977.72
2024-01-14T03:43:54.313Z,99976.66
2024-01-14T03:46:56.849Z,99963.06
2024-01-14T03:49:59.266Z,99969.59
2024-01-14T03:53:01.774Z,99948.31
2024-01-14T03:56:04.412Z,99943.47
2024-01-14T03:59:07.314Z,99946.41
2024-01-14T04:02:09.869Z,99937.22
2024-01-14T04:05:12.315Z,99934.63
2024-01-14T04:08:14.703Z,99930.03
2024-01-14T04:11:17.080Z,99926.56
2024-01-14T04:14:19.453Z,99922.28
2024-01-14T04:17:21.835Z,99917.56
2024-01-14T04:20:25.461Z,99917.94
2024-01-14T04:23:28.112Z,99907.28
2024-01-14T04:26:31.216Z,99917.03
2024-01-14T04:29:33.689Z,99910.75
2024-01-14T04:32:36.651Z,99922.00
2024-01-14T04:35:39.771Z,99924.56
2024-01-14T04:38:42.551Z,99928.06
2024-01-14T04:41:44.987Z,99920.59
2024-01-14T04:44:47.412Z,99924.84
2024-01-14T04:47:50.042Z,99926.75
2024-01-14T04:50:53.008Z,99927.81
2024-01-14T04:53:55.675Z,99928.13
2024-01-14T04:56:59.105Z,99923.34
2024-01-14T05:00:01.564Z,99921.31
2024-01-14T05:03:04.351Z,99910.69
2024-01-14T05:06:07.002Z,99918.69
2024-01-14T05:09:09.676Z,99922.94
2024-01-14T05:12:12.089Z,99905.38
2024-01-14T05:15:14.595Z,99918.53
2024-01-14T05:18:17.273Z,99921.25
2024-01-14T05:21:23.609Z,99907.66
2024-01-14T05:24:25.976Z,99906.19
2024-01-14T05:27:28.434Z,99908.22
2024-01-14T05:30:31.163Z,99904.72
2024-01-14T05:33:33.679Z,99904.50
2024-01-14T05:36:37.364Z,99914.38
2024-01-14T05:39:40.060Z,99914.94
2024-01-14T05:42:43.908Z,99914.69
2024-01-14T05:45:47.055Z,99918.34
2024-01-14T05:48:49.671Z,99916.94
2024-01-14T05:51:52.202Z,99913.53
2024-01-14T05:54:54.606Z,99902.72
2024-01-14T05:57:57.056Z,99925.06
2024-01-14T06:01:00.052Z,99906.78
2024-01-14T06:04:02.643Z,99908.81
2024-01-14T06:07:05.340Z,99912.69
2024-01-14T06:10:09.574Z,99914.63
2024-01-14T06:13:11.952Z,99904.78
2024-01-14T06:16:14.575Z,99895.41
2024-01-14T06:19:17.907Z,99892.66
2024-01-14T06:22:20.397Z,99897.28
2024-01-14T06:25:22.803Z,99912.03
2024-01-14T06:28:25.310Z,99903.06
2024-01-14T06:31:27.922Z,99904.97
2024-01-14T06:34:30.611Z,99900.97
2024-01-14T06:37:33.126Z,99885.31
2024-01-14T06:40:41.190Z,99889.88
2024-01-14T06:43:46.064Z,99900.78
2024-01-14T06:46:49.495Z,99902.63
2024-01-14T06:49:59.207Z,99897.84
2024-01-14T06:53:09.529Z,99895.38
2024-01-14T06:56:12.062Z,99907.03
2024-01-14T06:59:16.076Z,99916.31
2024-01-14T07:02:18.480Z,99906.44
2024-01-14T07:05:20.917Z,99913.34
2024-01-14T07:08:23.329Z,99915.69
2024-01-14T07:11:25.858Z,99912.25
2024-01-14T07:14:28.207Z,99914.59
2024-01-14T07:17:53.516Z,99914.97
2024-01-14T07:20:53.566Z,99911.19
2024-01-14T07:23:56.805Z,99921.53
2024-01-14T07:27:00.035Z,99912.63
2024-01-14T07:30:02.950Z,99913.22
2024-01-14T07:33:05.642Z,99907.06
2024-01-14T07:36:09.037Z,99917.38
2024-01-14T07:39:11.657Z,99912.03
2024-01-14T07:42:14.112Z,99909.41
2024-01-14T07:45:16.536Z,99919.66
2024-01-14T07:48:19.239Z,99923.69
2024-01-14T07:51:23.766Z,99909.31
2024-01-14T07:54:26.529Z,99926.09
2024-01-14T07:57:29.015Z,99918.63
2024-01-14T08:00:31.598Z,99922.16
2024-01-14T08:03:34.340Z,99917.81
2024-01-14T08:06:36.873Z,99933.00
2024-01-14T08:09:39.371Z,99928.66
2024-01-14T08:12:42.626Z,99932.09
2024-01-14T08:15:53.923Z,99935.56
2024-01-14T08:19:04.637Z,99932.00
2024-01-14T08:22:07.210Z,99932.69
2024-01-14T08:25:10.884Z,99938.53
2024-01-14T08:28:13.379Z,99937.66
2024-01-14T08:31:15.870Z,99951.59
2024-01-14T08:34:18.487Z,99940.97
2024-01-14T08:37:20.923Z,99949.16
2024-01-14T08:40:23.337Z,99949.13
2024-01-14T08:43:25.756Z,99943.56
2024-01-14T08:46:28.386Z,99946.63
2024-01-14T08:49:31.740Z,99954.28
2024-01-14T08:52:34.579Z,99954.28
2024-01-14T08:55:37.036Z,99947.19
2024-01-14T08:58:39.460Z,99948.47
2024-01-14T09:01:41.947Z,99948.91
2024-01-14T09:04:44.344Z,99935.31
2024-01-14T09:07:46.809Z,99954.16
2024-01-14T09:10:50.648Z,99949.97
2024-01-14T09:13:53.277Z,99943.09
2024-01-14T09:16:55.677Z,99940.09
2024-01-14T09:19:58.256Z,99930.84
2024-01-14T09:23:00.774Z,99946.59
2024-01-14T09:26:03.244Z,99940.03
2024-01-14T09:29:05.666Z,99939.69
2024-01-14T09:32:08.384Z,99935.00
2024-01-14T09:35:13.571Z,99921.38
2024-01-14T09:38:16.020Z,99910.06
2024-01-14T09:41:28.659Z,99917.13
2024-01-14T09:44:31.086Z,99916.72
2024-01-14T09:47:34.496Z,99911.25
2024-01-14T09:50:37.729Z,99901.47
2024-01-14T09:53:41.544Z,99883.16
2024-01-14T09:56:45.749Z,99893.66
2024-01-14T09:59:51.015Z,99898.28
2024-01-14T10:02:53.391Z,99890.44
2024-01-14T10:05:56.604Z,99892.81
2024-01-14T10:08:59.778Z,99881.16
2024-01-14T10:12:02.226Z,99885.25
2024-01-14T10:15:06.038Z,99882.75
2024-01-14T10:18:08.539Z,99883.78
2024-01-14T10:21:11.138Z,99885.59
2024-01-14T10:24:13.582Z,99866.47
2024-01-14T10:27:33.674Z,99892.22
2024-01-14T10:30:39.900Z,99878.94
2024-01-14T10:33:42.545Z,99873.63
2024-01-14T10:36:45.215Z,99863.75
2024-01-14T10:39:47.591Z,99863.81
2024-01-14T10:42:50.001Z,99851.00
2024-01-14T10:45:53.673Z,99848.34
2024-01-14T10:49:08.131Z,99850.84
2024-01-14T10:52:14.259Z,99852.81
2024-01-14T10:55:42.832Z,99852.75
2024-01-14T10:58:46.675Z,99847.56
2024-01-14T11:01:50.940Z,99836.56
2024-01-14T11:04:53.458Z,99826.00
2024-01-14T11:07:55.927Z,99831.78
2024-01-14T11:10:58.927Z,99830.13
2024-01-14T11:14:15.636Z,99828.47
2024-01-14T11:17:33.245Z,99819.84
2024-01-14T11:20:47.442Z,99813.19
2024-01-14T11:24:00.816Z,99806.41
2024-01-14T11:27:13.138Z,99808.34
2024-01-14T11:30:20.105Z,99819.72
2024-01-14T11:33:41.916Z,99829.13
2024-01-14T11:36:57.761Z,99813.97
2024-01-14T11:40:19.354Z,99806.63
2024-01-14T11:43:26.595Z,99810.56
2024-01-14T11:46:35.074Z,99803.97
2024-01-14T11:49:37.614Z,99794.97
2024-01-14T11:52:47.696Z,99785.63
2024-01-14T11:55:50.452Z,99782.91
2024-01-14T11:58:52.845Z,99771.59
2024-01-14T12:01:58.058Z,99758.34
2024-01-14T12:05:21.265Z,99750.50
2024-01-14T12:08:24.791Z,99743.47
2024-01-14T12:11:27.231Z,99738.75
2024-01-14T12:14:29.693Z,99734.03
2024-01-14T12:17:33.142Z,99741.75
2024-01-14T12:20:35.762Z,99753.38
2024-01-14T12:23:38.314Z,99762.66
2024-01-14T12:26:46.826Z,99766.88
2024-01-14T12:29:49.269Z,99764.53
2024-01-14T12:32:51.734Z,99764.09
2024-01-14T12:35:54.277Z,99755.47
2024-01-14T12:38:56.742Z,99761.28
2024-01-14T12:41:59.238Z,99762.41
2024-01-14T12:45:02.425Z,99761.59
2024-01-14T12:48:06.029Z,99758.88
2024-01-14T12:51:08.849Z,99749.91
2024-01-14T12:54:25.738Z,99742.19
2024-01-14T12:57:29.527Z,99746.19
2024-01-14T13:00:32.673Z,99742.75
2024-01-14T13:03:37.730Z,99758.75
2024-01-14T13:06:40.311Z,99731.56
2024-01-14T13:09:43.654Z,99746.44
2024-01-14T13:12:46.499Z,99747.28
2024-01-14T13:15:49.015Z,99752.03
2024-01-14T13:18:51.647Z,99759.50
2024-01-14T13:21:54.208Z,99764.69
2024-01-14T13:24:56.689Z,99764.31
2024-01-14T13:27:59.223Z,99764.75
2024-01-14T13:31:01.759Z,99753.06
2024-01-14T13:34:07.176Z,99756.56
2024-01-14T13:37:10.407Z,99755.03
2024-01-14T13:40:13.821Z,99754.59
2024-01-14T13:43:16.343Z,99755.41
2024-01-14T13:46:18.734Z,99754.59
2024-01-14T13:49:21.412Z,99762.38
2024-01-14T13:52:24.387Z,99759.25
2024-01-14T13:55:27.009Z,99758.44
2024-01-14T13:58:29.440Z,99751.03
2024-01-14T14:01:31.932Z,99741.66
2024-01-14T14:04:34.677Z,99751.78
2024-01-14T14:07:38.495Z,99745.91
2024-01-14T14:10:47.420Z,99745.06
2024-01-14T14:13:52.399Z,99746.59
2024-01-14T14:16:54.797Z,99759.03
2024-01-14T14:19:57.415Z,99765.59
2024-01-14T14:23:00.012Z,99757.69
2024-01-14T14:26:02.417Z,99750.66
2024-01-14T14:29:05.935Z,99746.38
2024-01-14T14:32:09.069Z,99747.59
2024-01-14T14:35:14.251Z,99748.81
2024-01-14T14:38:16.966Z,99754.69
2024-01-14T14:41:27.279Z,99749.28
2024-01-14T14:44:35.927Z,99748.16
2024-01-14T14:47:39.121Z,99732.59
2024-01-14T14:50:41.707Z,99741.63
2024-01-14T14:53:44.192Z,99746.38
2024-01-14T14:56:46.687Z,99741.72
2024-01-14T14:59:49.138Z,99740.22
2024-01-14T15:02:51.613Z,99738.69
2024-01-14T15:05:54.101Z,99723.53
2024-01-14T15:08:56.539Z,99720.81
2024-01-14T15:11:58.985Z,99722.00
2024-01-14T15:15:01.600Z,99709.53
2024-01-14T15:18:04.644Z,99724.72
2024-01-14T15:21:07.468Z,99712.59
2024-01-14T15:24:11.921Z,99725.84
2024-01-14T15:27:14.646Z,99725.84
2024-01-14T15:30:17.225Z,99714.13
2024-01-14T15:33:19.991Z,99712.56
2024-01-14T15:36:23.806Z,99698.50
2024-01-14T15:39:26.678Z,99712.13
2024-01-14T15:42:29.304Z,99724.56
2024-01-14T15:45:31.744Z,99724.13
2024-01-14T15:48:39.976Z,99721.78
2024-01-14T15:51:42.914Z,99718.63
2024-01-14T15:54:45.500Z,99705.75
2024-01-14T15:57:48.986Z,99705.69
2024-01-14T16:01:03.149Z,99709.16
2024-01-14T16:04:11.842Z,99706.41
2024-01-14T16:07:14.355Z,99708.66
2024-01-14T16:10:17.082Z,99708.22
2024-01-14T16:13:19.569Z,99706.56
2024-01-14T16:16:22.197Z,99706.56
2024-01-14T16:19:24.719Z,99715.06
2024-01-14T16:22:27.125Z,99709.56
2024-01-14T16:25:29.514Z,99710.34
2024-01-14T16:28:32.819Z,99701.03
2024-01-14T16:31:35.574Z,99703.75
2024-01-14T16:34:38.140Z,99711.59
2024-01-14T16:37:40.637Z,99698.81
2024-01-14T16:40:48.128Z,99706.25
2024-01-14T16:43:56.006Z,99704.75
2024-01-14T16:46:58.430Z,99698.59
2024-01-14T16:50:04.978Z,99708.03
2024-01-14T16:53:08.853Z,99699.88
2024-01-14T16:56:15.863Z,99694.13
2024-01-14T16:59:18.523Z,99709.00
2024-01-14T17:02:21.064Z,99706.31
2024-01-14T17:05:23.479Z,99711.41
2024-01-14T17:08:25.907Z,99705.56
2024-01-14T17:11:28.311Z,99695.81
2024-01-14T17:14:31.271Z,99693.47
2024-01-14T17:17:34.617Z,99695.78
2024-01-14T17:20:37.257Z,99689.16
2024-01-14T17:23:39.806Z,99676.31
2024-01-14T17:26:42.368Z,99683.31
2024-01-14T17:29:44.827Z,99673.53
2024-01-14T17:32:47.321Z,99680.53
2024-01-14T17:36:00.491Z,99668.03
2024-01-14T17:39:07.297Z,99678.13
2024-01-14T17:42:09.822Z,99683.56
2024-01-14T17:45:12.521Z,99669.91
2024-01-14T17:48:15.019Z,99665.56
2024-01-14T17:51:19.672Z,99663.59
2024-01-14T17:54:22.236Z,99660.44
2024-01-14T17:57:24.996Z,99661.94
2024-01-14T18:00:27.844Z,99667.75
2024-01-14T18:03:30.926Z,99663.88
2024-01-14T18:06:33.863Z,99665.44
2024-01-14T18:09:36.337Z,99662.69
2024-01-14T18:12:39.022Z,99672.84
2024-01-14T18:15:46.734Z,99672.50
2024-01-14T18:18:52.471Z,99666.69
2024-01-14T18:21:55.274Z,99667.13
2024-01-14T18:24:57.862Z,99662.09
2024-01-14T18:28:00.258Z,99661.75
2024-01-14T18:31:03.076Z,99659.09
2024-01-14T18:34:05.689Z,99667.75
2024-01-14T18:37:08.213Z,99664.63
2024-01-14T18:40:11.924Z,99662.31
2024-01-14T18:43:14.446Z,99663.53
2024-01-14T18:46:16.956Z,99655.34
2024-01-14T18:49:19.660Z,99645.19
2024-01-14T18:52:24.285Z,99658.81
2024-01-14T18:55:27.159Z,99638.16
2024-01-14T18:58:29.613Z,99656.84
2024-01-14T19:01:32.212Z,99646.34
2024-01-14T19:04:35.066Z,99650.97
2024-01-14T19:07:37.788Z,99645.88
2024-01-14T19:10:42.458Z,99649.75
2024-01-14T19:13:45.371Z,99661.81
2024-01-14T19:16:51.239Z,99656.69
2024-01-14T19:19:54.100Z,99653.94
2024-01-14T19:22:56.959Z,99651.63
2024-01-14T19:25:59.922Z,99643.00
2024-01-14T19:29:06.722Z,99650.75
2024-01-14T19:32:09.567Z,99648.34
2024-01-14T19:35:12.106Z,99656.84
2024-01-14T19:38:14.826Z,99652.19
2024-01-14T19:41:17.372Z,99638.16
2024-01-14T19:44:21.567Z,99642.88
2024-01-14T19:47:28.860Z,99635.09
2024-01-14T19:50:31.501Z,99636.66
2024-01-14T19:53:35.336Z,99632.44
2024-01-14T19:56:44.495Z,99612.59
2024-01-14T19:59:47.310Z,99626.66
2024-01-14T20:02:50.188Z,99612.31
2024-01-14T20:05:53.115Z,99628.75
2024-01-14T20:08:56.552Z,99619.03
2024-01-14T20:12:01.456Z,99613.25
2024-01-14T20:15:05.064Z,99597.28
2024-01-14T20:18:07.957Z,99603.13
2024-01-14T20:21:10.731Z,99598.88
2024-01-14T20:24:14.488Z,99597.69
2024-01-14T20:27:17.360Z,99596.50
2024-01-14T20:30:21.359Z,99585.59
2024-01-14T20:33:26.889Z,99600.03
2024-01-14T20:36:29.787Z,99596.06
2024-01-14T20:39:32.626Z,99598.00
2024-01-14T20:42:35.209Z,99591.78
2024-01-14T20:45:37.728Z,99584.34
2024-01-14T20:48:40.591Z,99575.41
2024-01-14T20:51:43.507Z,99570.31
2024-01-14T20:54:47.281Z,99570.31
2024-01-14T20:57:49.945Z,99562.88
2024-01-14T21:00:52.574Z,99572.19
2024-01-14T21:03:55.855Z,99567.50
2024-01-14T21:06:58.498Z,99557.72
2024-01-14T21:10:01.044Z,99546.78
2024-01-14T21:13:06.369Z,99561.19
2024-01-14T21:16:09.049Z,99561.22
2024-01-14T21:19:11.682Z,99569.38
2024-01-14T21:22:15.616Z,99552.28
2024-01-14T21:25:18.023Z,99554.63
2024-01-14T21:28:20.888Z,99552.72
2024-01-14T21:31:23.331Z,99535.22
2024-01-14T21:34:26.529Z,99534.88
2024-01-14T21:37:29.042Z,99536.09
2024-01-14T21:40:31.611Z,99539.22
2024-01-14T21:43:37.976Z,99535.75
2024-01-14T21:46:40.811Z,99524.88
2024-01-14T21:49:43.563Z,99520.59
2024-01-14T21:52:46.015Z,99513.97
2024-01-14T21:55:48.913Z,99511.66
2024-01-14T21:58:51.313Z,99514.38
2024-01-14T22:01:55.262Z,99498.78
2024-01-14T22:04:57.836Z,99494.91
2024-01-14T22:08:00.971Z,99483.59
2024-01-14T22:11:03.512Z,99488.69
2024-01-14T22:14:05.968Z,99482.44
2024-01-14T22:17:08.534Z,99490.19
2024-01-14T22:20:17.826Z,99498.75
2024-01-14T22:23:20.226Z,99491.75
2024-01-14T22:26:22.603Z,99484.34
2024-01-14T22:29:26.413Z,99481.22
2024-01-14T22:32:28.823Z,99466.41
2024-01-14T22:35:31.693Z,99464.44
2024-01-14T22:38:34.100Z,99474.53
2024-01-14T22:41:37.609Z,99466.34
2024-01-14T22:44:39.977Z,99456.97
2024-01-14T22:47:42.446Z,99465.53
2024-01-14T22:50:44.932Z,99451.53
2024-01-14T22:53:48.801Z,99452.72
2024-01-14T22:56:51.201Z,99453.53
2024-01-14T22:59:53.710Z,99455.47
2024-01-14T23:02:56.678Z,99442.25
2024-01-14T23:05:59.170Z,99438.00
2024-01-14T23:09:01.655Z,99432.97
2024-01-14T23:12:04.919Z,99427.53
2024-01-14T23:15:09.140Z,99431.44
2024-01-14T23:18:13.081Z,99416.25
2024-01-14T23:21:15.743Z,99414.34
2024-01-14T23:24:18.208Z,99398.75
2024-01-14T23:27:20.985Z,99399.13
2024-01-14T23:30:23.961Z,99397.19
2024-01-14T23:33:26.569Z,99394.06
2024-01-14T23:36:29.187Z,99376.16
2024-01-14T23:39:31.643Z,99375.78
2024-01-14T23:42:34.114Z,99370.34
2024-01-14T23:45:36.621Z,99368.78
2024-01-14T23:48:39.216Z,99369.56
2024-01-14T23:51:41.866Z,99356.72
2024-01-14T23:54:44.431Z,99336.50
2024-01-14T23:57:46.940Z,99340.78
